< < Back
Terminal Aerodrome Forecast


Current Version              Previous Versions:   1  2  3  4  5  6  7  8  9  

Terminal Aerodrome Forecast

725
FTUS42 KJAX 220500
TAFSSI
TAF
KSSI 220528Z 2206/2306 22005KT P6SM SKC
     FM221300 26006KT P6SM SCT250
     FM221700 18007KT P6SM FEW035 BKN250
     FM222300 16006KT P6SM VCTS SCT035CB OVC250
     FM230400 07006KT P6SM VCTS BKN030CB OVC250
      TEMPO 2304/2306 4SM TSRA OVC025CB=



Latest METAR

737
SAUS70 KWBC 230000 RRF
MTRSSI
METAR KSSI 222353Z AUTO 15009KT 10SM CLR 27/18 A3000 RMK AO2 SLP158
T02670183 10300 20267 53011


USA.gov is the U.S. government's official web portal to all federal, state and local government web resources and services.